KGRN

Gordon Municipal Airport

Gordon, Nebraska, USA
METAR KGRN 171035Z AUTO 28004KT 10SM CLR M10/M16 A3020 RMK AO2 T11021158
Observed Flight Rules
Jan-17 @ 10:35 UTC (23 minutes ago) Visual Flight Rules
Wind Visibility Clouds
280° at 4 knots 10 miles
  • Clear skies
Temperatures Readings
Current -10°C / 14°F
Dewpoint -16°C / 3°F
Humidity 62%
Altimeter 30.2" Hg
Pressure 1023 hPa
Elevation 1086
METAR KGRN 171035Z AUTO 28004KT 10SM CLR M10/M16 A3020 RMK AO2 T11021158
Observed Flight Rules
Jan-17 @ 10:35 UTC
(23 minutes ago)
VFR
Wind Visibility
280° at 4 knots 10 miles
Clouds
  • Clear skies
Temperature Dewpoint
-10°C / 14°F -16°C / 3°F
Humidity Altimeter Pressure
62% 30.2" Hg 1023 hPa